createdAt,value
2023-02-14T00:01:09.270Z,4.1
2023-02-14T00:06:15.375Z,4.4
2023-02-14T00:11:20.496Z,4.1
2023-02-14T00:16:26.608Z,4.1
2023-02-14T00:21:32.688Z,4.1
2023-02-14T00:26:38.794Z,4.1
2023-02-14T00:31:44.897Z,4.1
2023-02-14T00:36:50.990Z,4.4
2023-02-14T00:41:57.067Z,4.1
2023-02-14T00:47:03.184Z,4.1
2023-02-14T00:52:09.275Z,5.1
2023-02-14T00:57:15.369Z,4.1
2023-02-14T01:02:21.477Z,4.1
2023-02-14T01:07:27.557Z,3.8
2023-02-14T01:12:33.658Z,4.1
2023-02-14T01:17:38.774Z,4.1
2023-02-14T01:22:44.866Z,3.8
2023-02-14T01:27:50.979Z,4.4
2023-02-14T01:32:57.070Z,4.1
2023-02-14T01:38:03.155Z,3.8
2023-02-14T01:43:09.285Z,3.8
2023-02-14T01:48:15.374Z,3.8
2023-02-14T01:53:21.460Z,4.1
2023-02-14T01:58:27.559Z,4.7
2023-02-14T02:03:33.663Z,4.7
2023-02-14T02:08:39.758Z,4.1
2023-02-14T02:13:45.841Z,3.8
2023-02-14T02:18:51.950Z,3.8
2023-02-14T02:23:57.046Z,3.8
2023-02-14T02:29:03.160Z,4.7
2023-02-14T02:34:09.256Z,4.1
2023-02-14T02:39:15.348Z,3.8
2023-02-14T02:44:21.438Z,4.1
2023-02-14T02:49:27.548Z,3.8
2023-02-14T02:54:33.634Z,3.8
2023-02-14T02:59:39.731Z,4.1
2023-02-14T03:04:45.830Z,3.8
2023-02-14T03:09:51.933Z,4.1
2023-02-14T03:14:58.031Z,4.1
2023-02-14T03:20:04.116Z,4.1
2023-02-14T03:25:10.230Z,4.1
2023-02-14T03:30:15.391Z,4.1
2023-02-14T03:35:21.429Z,4.1
2023-02-14T03:40:27.523Z,3.8
2023-02-14T03:45:33.614Z,4.1
2023-02-14T03:50:39.730Z,3.8
2023-02-14T03:55:45.816Z,4.1
2023-02-14T04:00:51.913Z,4.1
2023-02-14T04:05:58.023Z,4.4
2023-02-14T04:11:04.114Z,4.1
2023-02-14T04:16:10.205Z,3.8
2023-02-14T04:21:16.318Z,4.1
2023-02-14T04:26:22.420Z,4.1
2023-02-14T04:31:28.523Z,4.1
2023-02-14T04:36:33.607Z,3.8
2023-02-14T04:41:39.709Z,4.4
2023-02-14T04:46:45.825Z,4.4
2023-02-14T04:51:51.924Z,4.1
2023-02-14T04:56:58.008Z,4.1
2023-02-14T05:02:04.113Z,3.8
2023-02-14T05:07:10.210Z,3.8
2023-02-14T05:12:16.299Z,4.4
2023-02-14T05:17:22.411Z,4.1
2023-02-14T05:22:28.501Z,4.1
2023-02-14T05:27:34.595Z,4.4
2023-02-14T05:32:40.705Z,4.4
2023-02-14T05:37:46.794Z,3.8
2023-02-14T05:42:51.898Z,4.1
2023-02-14T05:47:58.008Z,4.1
2023-02-14T05:53:04.114Z,3.8
2023-02-14T05:58:10.207Z,3.8
2023-02-14T06:03:16.289Z,4.1
2023-02-14T06:08:22.411Z,4.1
2023-02-14T06:13:28.498Z,4.1
2023-02-14T06:18:34.640Z,4.1
2023-02-14T06:23:40.723Z,4.1
2023-02-14T06:28:46.795Z,3.8
2023-02-14T06:33:52.886Z,3.8
2023-02-14T06:38:58.998Z,3.8
2023-02-14T06:44:05.095Z,3.8
2023-02-14T06:49:10.208Z,4.4
2023-02-14T06:54:16.300Z,3.8
2023-02-14T06:59:22.400Z,4.1
2023-02-14T07:04:28.499Z,4.7
2023-02-14T07:09:34.585Z,3.8
2023-02-14T07:14:40.691Z,3.8
2023-02-14T07:19:46.790Z,3.8
2023-02-14T07:24:52.925Z,4.1
2023-02-14T07:29:58.988Z,3.8
2023-02-14T07:35:05.075Z,4.1
2023-02-14T07:40:11.162Z,3.8
2023-02-14T07:45:17.259Z,4.1
2023-02-14T07:50:23.547Z,4.1
2023-02-14T07:55:28.720Z,3.8
2023-02-14T08:00:34.654Z,3.8
2023-02-14T08:05:40.815Z,3.8
2023-02-14T08:10:46.890Z,3.8
2023-02-14T08:15:53.031Z,3.4
2023-02-14T08:20:58.968Z,4.1
2023-02-14T08:26:05.076Z,4.1
2023-02-14T08:31:11.296Z,3.8
2023-02-14T08:36:17.274Z,4.4
2023-02-14T08:41:23.337Z,4.1
2023-02-14T08:46:29.453Z,3.8
2023-02-14T08:51:35.542Z,4.1
2023-02-14T08:56:41.705Z,3.8
2023-02-14T09:01:46.767Z,4.1
2023-02-14T09:06:52.981Z,4.4
2023-02-14T09:11:58.937Z,4.1
2023-02-14T09:17:05.048Z,4.1
2023-02-14T09:22:11.133Z,3.8
2023-02-14T09:27:17.245Z,4.7
2023-02-14T09:32:23.327Z,4.1
2023-02-14T09:37:29.432Z,3.8
2023-02-14T09:42:35.527Z,4.4
2023-02-14T09:47:41.629Z,4.4
2023-02-14T09:52:47.739Z,4.1
2023-02-14T09:57:53.816Z,4.1
2023-02-14T10:02:59.913Z,4.1
2023-02-14T10:08:05.023Z,4.1
2023-02-14T10:13:11.120Z,4.1
2023-02-14T10:18:17.217Z,4.1
2023-02-14T10:23:23.315Z,4.1
2023-02-14T10:33:35.512Z,4.1
2023-02-14T10:43:47.725Z,4.1
2023-02-14T10:48:53.795Z,4.7
2023-02-14T10:53:59.887Z,4.1
2023-02-14T10:59:06.001Z,4.1
2023-02-14T11:04:12.078Z,4.1
2023-02-14T11:09:18.160Z,4.1
2023-02-14T11:14:23.277Z,4.4
2023-02-14T11:19:29.461Z,4.1
2023-02-14T11:24:35.502Z,4.1
2023-02-14T11:29:41.642Z,4.1
2023-02-14T11:34:47.664Z,4.1
2023-02-14T11:39:53.756Z,4.7
2023-02-14T11:44:59.893Z,4.4
2023-02-14T11:50:06.006Z,4.1
2023-02-14T11:55:12.153Z,4.4
2023-02-14T12:00:18.150Z,4.4
2023-02-14T12:05:24.257Z,4.4
2023-02-14T12:10:30.399Z,4.7
2023-02-14T12:15:36.437Z,4.4
2023-02-14T12:20:41.698Z,4.4
2023-02-14T12:25:47.648Z,4.4
2023-02-14T12:30:53.725Z,4.7
2023-02-14T12:35:59.928Z,4.1
2023-02-14T12:41:05.926Z,5.4
2023-02-14T12:46:12.032Z,4.4
2023-02-14T12:51:18.112Z,4.4
2023-02-14T12:56:24.210Z,4.4
2023-02-14T13:01:30.327Z,4.7
2023-02-14T13:06:36.400Z,4.7
2023-02-14T13:11:42.503Z,4.4
2023-02-14T13:16:48.597Z,4.7
2023-02-14T13:21:54.680Z,4.4
2023-02-14T13:32:05.946Z,4.7
2023-02-14T13:37:11.975Z,4.4
2023-02-14T13:42:18.077Z,4.4
2023-02-14T13:47:24.165Z,5.4
2023-02-14T13:52:30.268Z,4.4
2023-02-14T13:57:35.389Z,5.1
2023-02-14T14:02:41.483Z,4.4
2023-02-14T14:07:47.581Z,4.4
2023-02-14T14:12:53.679Z,4.4
2023-02-14T14:17:59.765Z,4.7
2023-02-14T14:23:05.864Z,5.1
2023-02-14T14:28:11.972Z,4.7
2023-02-14T14:33:18.067Z,5.1
2023-02-14T14:38:24.150Z,4.7
2023-02-14T14:43:30.257Z,4.7
2023-02-14T14:48:36.341Z,5.7
2023-02-14T14:53:42.562Z,5.1
2023-02-14T14:58:48.564Z,5.1
2023-02-14T15:03:53.666Z,4.7
2023-02-14T15:08:59.985Z,4.7
2023-02-14T15:14:05.844Z,4.7
2023-02-14T15:19:11.969Z,5.1
2023-02-14T15:24:18.031Z,5.4
2023-02-14T15:29:24.137Z,5.1
2023-02-14T15:34:30.262Z,4.7
2023-02-14T15:39:36.321Z,5.1
2023-02-14T15:44:42.429Z,5.7
2023-02-14T15:49:48.509Z,5.4
2023-02-14T15:54:54.624Z,5.1
2023-02-14T16:00:00.715Z,5.7
2023-02-14T16:05:06.792Z,5.4
2023-02-14T16:10:11.902Z,5.4
2023-02-14T16:15:17.994Z,5.4
2023-02-14T16:20:24.102Z,5.4
2023-02-14T16:25:30.199Z,5.1
2023-02-14T16:30:36.283Z,5.1
2023-02-14T16:35:42.391Z,5.1
2023-02-14T16:40:48.530Z,5.1
2023-02-14T16:45:54.587Z,5.4
2023-02-14T16:51:00.682Z,5.1
2023-02-14T16:56:06.769Z,5.4
2023-02-14T17:01:12.881Z,5.1
2023-02-14T17:06:18.999Z,5.4
2023-02-14T17:11:25.061Z,5.4
2023-02-14T17:16:30.181Z,5.1
2023-02-14T17:21:36.297Z,5.1
2023-02-14T17:26:42.368Z,5.1
2023-02-14T17:31:48.479Z,5.1
2023-02-14T17:36:54.564Z,5.1
2023-02-14T17:42:00.660Z,5.1
2023-02-14T17:47:06.784Z,5.4
2023-02-14T17:52:12.852Z,4.7
2023-02-14T17:57:18.961Z,5.1
2023-02-14T18:02:25.231Z,5.4
2023-02-14T18:07:31.173Z,5.1
2023-02-14T18:12:37.260Z,5.4
2023-02-14T18:17:43.347Z,5.1
2023-02-14T18:22:48.458Z,5.4
2023-02-14T18:27:54.651Z,5.1
2023-02-14T18:33:00.663Z,5.1
2023-02-14T18:38:06.762Z,5.4
2023-02-14T18:43:12.828Z,5.7
2023-02-14T18:48:18.948Z,5.7
2023-02-14T18:53:25.049Z,5.4
2023-02-14T18:58:31.139Z,5.1
2023-02-14T19:03:37.235Z,5.1
2023-02-14T19:08:43.342Z,5.1
2023-02-14T19:13:49.428Z,5.1
2023-02-14T19:18:55.536Z,5.1
2023-02-14T19:24:01.647Z,5.4
2023-02-14T19:29:06.750Z,5.7
2023-02-14T19:34:12.914Z,5.1
2023-02-14T19:39:18.934Z,5.1
2023-02-14T19:44:25.132Z,5.1
2023-02-14T19:49:31.132Z,4.7
2023-02-14T19:54:37.379Z,4.7
2023-02-14T19:59:43.379Z,5.1
2023-02-14T20:04:49.425Z,4.7
2023-02-14T20:09:55.502Z,5.7
2023-02-14T20:15:01.613Z,4.7
2023-02-14T20:20:07.701Z,4.7
2023-02-14T20:25:13.847Z,4.7
2023-02-14T20:30:19.915Z,4.7
2023-02-14T20:35:25.026Z,4.4
2023-02-14T20:40:31.232Z,4.7
2023-02-14T20:45:37.239Z,5.4
2023-02-14T20:50:43.337Z,4.7
2023-02-14T20:55:49.414Z,4.4
2023-02-14T21:00:55.520Z,5.1
2023-02-14T21:06:01.633Z,4.7
2023-02-14T21:11:07.715Z,4.4
2023-02-14T21:16:13.832Z,4.4
2023-02-14T21:21:20.017Z,4.7
2023-02-14T21:26:26.082Z,4.7
2023-02-14T21:31:32.122Z,4.4
2023-02-14T21:36:38.309Z,4.7
2023-02-14T21:41:43.551Z,4.1
2023-02-14T21:46:49.549Z,4.7
2023-02-14T21:51:55.602Z,4.4
2023-02-14T21:57:01.668Z,4.1
2023-02-14T22:02:07.836Z,4.4
2023-02-14T22:07:13.964Z,4.1
2023-02-14T22:12:20.005Z,4.4
2023-02-14T22:17:26.036Z,4.4
2023-02-14T22:22:32.124Z,4.1
2023-02-14T22:27:38.235Z,4.7
2023-02-14T22:32:44.335Z,4.4
2023-02-14T22:37:50.474Z,4.4
2023-02-14T22:42:56.594Z,4.1
2023-02-14T22:48:01.692Z,4.1
2023-02-14T22:53:07.850Z,4.7
2023-02-14T22:58:13.959Z,4.1
2023-02-14T23:03:19.961Z,4.4
2023-02-14T23:08:26.026Z,3.8
2023-02-14T23:13:32.237Z,4.1
2023-02-14T23:18:38.249Z,4.1
2023-02-14T23:23:44.488Z,4.1
2023-02-14T23:28:50.455Z,3.8
2023-02-14T23:33:56.542Z,4.1
2023-02-14T23:39:02.671Z,4.1
2023-02-14T23:44:08.730Z,4.1
2023-02-14T23:49:14.878Z,4.1
2023-02-14T23:54:19.958Z,3.8
2023-02-14T23:59:26.060Z,4.1
